Anna, Illinois
Current Conditions -  °F | °C
As of 10:06 AM on Monday 26 Jan 2015 (Local Time) from KMDH Reporting Station
Broken Clouds Broken Clouds  
Wind Chill: 21°   Ceiling: 2100
Heat Index: 31°   Visibility: 10mi
Dew Point: 23°   Wind: 14mph
Humidity: 72%   Direction: 320°NW
Pressure: 30.08"   Gusts: NA
Location:  37.46°N, 89.25°W
Report Text: KMDH 261606Z 32012KT 10SM BKN021 M01/M05 A3008 RMK AO2 T10061050
Loading
Personal Weather Stations






























Interactive Weather Map New forecast layout! Learn more

10-Day Weather Forecast

Advertisements
Track Severe Weather on mobile